Time;durP1;ratioP1;P1;durP2;ratioP2;P2;SDS_P1;SDS_P2;PMS_P1;PMS_P2;Temp;Humidity;BMP_temperature;BMP_pressure;BME280_temperature;BME280_humidity;BME280_pressure;Samples;Min_cycle;Max_cycle;Signal;HPM_P1;HPM_P2
2021/12/27 00:02:25;;;;;;;40.50;20.55;;;;;;;-8.36;67.56;96131.63;1769919;80;20968;-84
2021/12/27 00:04:51;;;;;;;37.33;20.23;;;;;;;-8.30;67.63;96133.00;1746631;80;21474;-85
2021/12/27 00:07:17;;;;;;;32.70;17.62;;;;;;;-8.23;67.25;96125.09;1741582;80;21067;-84
2021/12/27 00:09:42;;;;;;;32.63;20.10;;;;;;;-8.25;67.13;96124.80;1761398;80;21058;-84
2021/12/27 00:12:09;;;;;;;33.92;17.87;;;;;;;-8.26;66.93;96127.76;1753178;80;21008;-84
2021/12/27 00:14:35;;;;;;;34.35;19.23;;;;;;;-8.21;67.40;96123.75;1757986;80;21071;-85
2021/12/27 00:17:01;;;;;;;30.57;16.65;;;;;;;-8.19;67.34;96126.56;1746162;80;21036;-85
2021/12/27 00:19:26;;;;;;;34.18;15.38;;;;;;;-8.14;67.26;96121.73;1761628;80;21126;-85
2021/12/27 00:21:53;;;;;;;22.13;13.78;;;;;;;-8.19;67.06;96117.73;1743569;80;21077;-85
2021/12/27 00:24:18;;;;;;;18.40;11.83;;;;;;;-8.18;67.62;96115.59;1737056;80;20999;-84
2021/12/27 00:26:44;;;;;;;15.83;10.55;;;;;;;-8.20;67.76;96106.03;1759887;80;21051;-85
2021/12/27 00:29:11;;;;;;;17.82;10.32;;;;;;;-8.23;68.03;96104.92;1759182;80;21066;-84
2021/12/27 00:31:37;;;;;;;76.87;30.23;;;;;;;-8.23;68.03;96104.92;1751600;80;21075;-85
2021/12/27 00:34:03;;;;;;;41.08;21.37;;;;;;;-8.18;67.90;96110.55;1766005;80;20989;-84
2021/12/27 00:36:28;;;;;;;41.88;20.08;;;;;;;-8.10;67.54;96108.11;1750338;80;20994;-85
2021/12/27 00:38:54;;;;;;;219.60;78.70;;;;;;;-8.16;67.73;96115.06;1732497;80;21344;-85
2021/12/27 00:41:20;;;;;;;82.90;34.00;;;;;;;-8.17;67.74;96106.31;1768517;80;20956;-84
2021/12/27 00:43:46;;;;;;;89.40;39.30;;;;;;;-8.15;68.04;96109.58;1748486;80;21471;-84
2021/12/27 00:46:11;;;;;;;133.20;51.65;;;;;;;-8.12;67.69;96112.42;1768010;80;21053;-84
2021/12/27 00:48:37;;;;;;;72.95;32.30;;;;;;;-8.10;67.75;96114.41;1754769;80;21066;-84
2021/12/27 00:51:03;;;;;;;51.33;26.15;;;;;;;-8.10;67.79;96105.14;1763782;80;21091;-85
2021/12/27 00:53:30;;;;;;;54.48;25.95;;;;;;;-8.12;67.54;96104.41;1770816;80;21427;-83
2021/12/27 00:55:56;;;;;;;46.30;24.00;;;;;;;-8.14;67.49;96105.34;1742654;80;21071;-82
2021/12/27 00:58:22;;;;;;;47.53;24.45;;;;;;;-8.14;67.85;96106.61;1748828;80;20970;-81
2021/12/27 01:00:47;;;;;;;96.97;41.00;;;;;;;-8.13;68.22;96114.13;1749634;80;21081;-82
2021/12/27 01:03:14;;;;;;;102.45;39.83;;;;;;;-8.08;68.30;96121.01;1751360;80;21091;-81
2021/12/27 01:05:40;;;;;;;79.17;33.95;;;;;;;-7.98;68.50;96119.64;1727230;80;21429;-82
2021/12/27 01:08:06;;;;;;;77.53;36.38;;;;;;;-7.87;68.60;96121.65;1749647;80;21000;-82
2021/12/27 01:10:59;;;;;;;70.22;30.10;;;;;;;-7.82;68.66;96118.89;1762835;80;21024;-81
2021/12/27 01:13:19;;;;;;;50.38;25.68;;;;;;;-7.82;68.46;96115.11;1741981;80;21000;-82
2021/12/27 01:18:06;;;;;;;;;;;;;;;-7.92;69.39;96113.51;1750009;80;20989;-81
2021/12/27 01:20:32;;;;;;;24.27;14.10;;;;;;;-7.91;69.79;96118.47;1752460;80;20453;-82
2021/12/27 01:22:58;;;;;;;23.22;12.78;;;;;;;-7.94;69.55;96104.76;1745114;80;21176;-82
2021/12/27 01:25:24;;;;;;;36.60;18.32;;;;;;;-7.89;70.01;96109.13;1752882;80;21110;-81
2021/12/27 01:27:51;;;;;;;103.32;42.90;;;;;;;-7.82;69.86;96114.66;1758700;80;21486;-82
2021/12/27 01:30:20;;;;;;;113.37;49.48;;;;;;;-7.76;69.87;96105.55;1751793;80;21106;-82
2021/12/27 01:32:51;;;;;;;130.37;52.62;;;;;;;-7.65;69.75;96110.03;1754552;80;21033;-82
2021/12/27 01:35:16;;;;;;;132.03;55.45;;;;;;;-7.65;68.95;96105.83;1758630;80;21595;-82
2021/12/27 01:37:42;;;;;;;235.10;84.65;;;;;;;-7.65;68.92;96102.04;1758617;79;21011;-82
2021/12/27 01:40:09;;;;;;;154.68;58.63;;;;;;;-7.67;68.62;96106.77;1742460;80;21055;-82
2021/12/27 01:42:35;;;;;;;113.65;46.90;;;;;;;-7.66;68.74;96097.05;1760847;80;21339;-82
2021/12/27 01:45:03;;;;;;;119.20;50.95;;;;;;;-7.67;68.43;96099.20;1760234;80;21094;-82
2021/12/27 01:47:30;;;;;;;101.45;46.10;;;;;;;-7.67;69.02;96101.73;1741409;80;21080;-82
2021/12/27 01:49:56;;;;;;;92.37;40.12;;;;;;;-7.72;68.84;96096.11;1716728;81;21518;-82
2021/12/27 01:52:21;;;;;;;197.65;71.17;;;;;;;-7.74;69.33;96091.14;1731072;81;20999;-82
2021/12/27 01:54:53;;;;;;;145.10;53.25;;;;;;;-7.73;69.69;96093.22;1649020;83;20964;-82
2021/12/27 01:57:19;;;;;;;42.17;21.63;;;;;;;-7.68;69.89;96084.95;1687613;82;21035;-82
2021/12/27 01:59:44;;;;;;;31.10;16.10;;;;;;;-7.70;70.02;96081.70;1710083;81;21032;-81
2021/12/27 02:02:12;;;;;;;53.78;25.10;;;;;;;-7.72;69.40;96089.80;1705180;81;20989;-82
2021/12/27 02:04:37;;;;;;;27.75;15.38;;;;;;;-7.71;69.86;96075.03;1708057;81;21374;-82
2021/12/27 02:07:03;;;;;;;86.55;34.33;;;;;;;-7.68;69.73;96083.25;1723982;81;21079;-82
2021/12/27 02:09:41;;;;;;;32.53;16.70;;;;;;;-7.64;69.29;96082.67;1712419;81;21063;-83
2021/12/27 02:11:57;;;;;;;35.95;19.32;;;;;;;-7.54;69.16;96078.77;1711600;81;21019;-82
2021/12/27 02:14:23;;;;;;;26.17;15.70;;;;;;;-7.56;68.44;96082.63;1716392;81;21414;-82
2021/12/27 02:16:48;;;;;;;27.93;15.50;;;;;;;-7.51;68.77;96088.69;1708386;82;21118;-82
2021/12/27 02:19:14;;;;;;;29.52;15.65;;;;;;;-7.56;67.66;96075.06;1727545;81;21157;-82
2021/12/27 02:21:40;;;;;;;23.77;14.75;;;;;;;-7.56;67.63;96083.08;1711491;81;21444;-82
2021/12/27 02:24:08;;;;;;;21.25;15.00;;;;;;;-7.59;67.39;96083.24;1710483;81;21095;-82
2021/12/27 02:26:33;;;;;;;23.25;13.50;;;;;;;-7.64;67.36;96077.18;1719697;81;20992;-82
2021/12/27 02:28:59;;;;;;;22.82;12.90;;;;;;;-7.71;67.44;96071.25;1744517;79;21496;-82
2021/12/27 02:31:27;;;;;;;36.80;17.48;;;;;;;-7.78;67.74;96075.80;1753081;80;21370;-82
2021/12/27 02:33:53;;;;;;;25.17;14.80;;;;;;;-7.79;67.74;96079.22;1746524;80;21024;-82
2021/12/27 02:36:19;;;;;;;95.60;35.03;;;;;;;-7.78;67.98;96074.54;1733875;80;21403;-82
2021/12/27 02:38:45;;;;;;;26.87;15.35;;;;;;;-7.72;67.94;96080.97;1741915;80;21046;-82
2021/12/27 02:41:11;;;;;;;21.20;12.43;;;;;;;-7.69;68.19;96073.24;1747846;80;21091;-82
2021/12/27 02:43:41;;;;;;;29.23;15.48;;;;;;;-7.65;68.16;96075.55;1747319;80;21207;-82
2021/12/27 02:46:08;;;;;;;23.45;13.22;;;;;;;-7.64;68.26;96071.32;1748531;80;21003;-81
2021/12/27 02:48:39;;;;;;;43.48;21.05;;;;;;;-7.63;68.31;96072.95;1750374;80;21056;-81
2021/12/27 02:51:06;;;;;;;57.38;27.62;;;;;;;-7.61;68.24;96068.63;1735498;80;21169;-80
2021/12/27 02:53:31;;;;;;;63.05;31.77;;;;;;;-7.64;67.73;96066.27;1750668;80;21089;-81
2021/12/27 02:55:59;;;;;;;65.30;31.45;;;;;;;-7.77;67.43;96066.08;1752040;80;21066;-81
2021/12/27 02:58:25;;;;;;;52.60;25.95;;;;;;;-7.82;67.30;96070.52;1755518;80;21098;-81
2021/12/27 03:00:54;;;;;;;41.85;22.42;;;;;;;-7.85;67.31;96073.20;1757625;80;21115;-81
2021/12/27 03:03:20;;;;;;;32.93;19.17;;;;;;;-7.89;67.19;96062.46;1759729;79;21138;-81
2021/12/27 03:05:46;;;;;;;34.25;19.30;;;;;;;-7.87;67.06;96072.47;1759469;80;21186;-81
2021/12/27 03:08:16;;;;;;;39.55;20.90;;;;;;;-7.86;67.16;96071.58;1760983;79;20986;-81
2021/12/27 03:10:45;;;;;;;39.65;20.57;;;;;;;-7.90;67.09;96072.62;1758603;79;20934;-81
2021/12/27 03:13:21;;;;;;;71.77;31.45;;;;;;;-7.98;67.06;96074.70;1749289;80;21034;-81
2021/12/27 03:15:55;;;;;;;69.58;32.38;;;;;;;-8.01;66.90;96071.08;1753173;80;21095;-81
2021/12/27 03:18:21;;;;;;;43.65;23.70;;;;;;;-8.04;66.76;96062.42;1758362;80;21055;-81
2021/12/27 03:20:50;;;;;;;23.30;13.68;;;;;;;-8.08;66.77;96060.50;1752076;80;21070;-81
2021/12/27 03:23:16;;;;;;;12.30;8.30;;;;;;;-8.10;66.46;96061.03;1761878;80;21054;-80
2021/12/27 03:25:41;;;;;;;9.28;6.62;;;;;;;-8.14;66.81;96055.75;1729418;81;21030;-81
2021/12/27 03:28:07;;;;;;;7.47;6.42;;;;;;;-8.11;67.38;96055.62;1726242;81;20995;-81
2021/12/27 03:30:33;;;;;;;9.58;6.30;;;;;;;-8.11;67.66;96046.80;1755932;80;20984;-81
2021/12/27 03:32:59;;;;;;;6.40;5.70;;;;;;;-8.09;67.85;96047.98;1754100;79;21015;-81
2021/12/27 03:35:34;;;;;;;38.70;17.90;;;;;;;-8.06;68.07;96050.34;1756839;80;21070;-81
2021/12/27 03:37:57;;;;;;;129.95;40.65;;;;;;;-8.04;68.28;96053.14;1761988;80;20961;-81
2021/12/27 03:40:23;;;;;;;48.10;17.77;;;;;;;-7.98;68.23;96054.09;1753101;80;21029;-81
2021/12/27 03:42:50;;;;;;;31.42;13.75;;;;;;;-7.99;68.04;96057.95;1753254;80;21134;-81
2021/12/27 03:45:22;;;;;;;21.12;10.85;;;;;;;-8.01;68.05;96059.29;1741899;80;22079;-81
2021/12/27 03:47:48;;;;;;;28.98;14.35;;;;;;;-8.07;67.43;96057.53;1755160;80;20996;-81
2021/12/27 03:50:14;;;;;;;36.83;20.70;;;;;;;-8.08;67.21;96063.02;1746295;80;21371;-81
2021/12/27 03:52:40;;;;;;;35.52;18.90;;;;;;;-8.03;67.12;96058.55;1757247;80;21401;-81
2021/12/27 03:55:06;;;;;;;25.48;14.78;;;;;;;-7.99;66.91;96064.25;1756133;80;21012;-81
2021/12/27 03:57:34;;;;;;;19.67;10.75;;;;;;;-7.96;66.64;96061.60;1758184;80;21122;-81
2021/12/27 04:02:44;;;;;;;11.10;7.60;;;;;;;-7.93;65.95;96055.95;1756681;79;21350;-81
2021/12/27 04:05:09;;;;;;;9.53;7.87;;;;;;;-7.95;65.55;96057.73;1752849;80;21047;-81
2021/12/27 04:07:39;;;;;;;7.55;6.10;;;;;;;-7.98;65.81;96057.87;1749368;80;21070;-81
2021/12/27 04:10:08;;;;;;;8.10;6.50;;;;;;;-7.99;65.85;96058.77;1752690;80;21443;-81
2021/12/27 04:12:34;;;;;;;6.83;6.12;;;;;;;-8.02;65.92;96057.66;1753206;80;21016;-81
2021/12/27 04:15:00;;;;;;;9.05;7.58;;;;;;;-8.04;66.19;96058.64;1759709;80;20971;-80
2021/12/27 04:17:26;;;;;;;9.08;6.72;;;;;;;-8.00;66.66;96070.19;1748237;79;21032;-81
2021/12/27 04:19:52;;;;;;;10.13;7.42;;;;;;;-7.98;66.79;96069.22;1749637;80;21443;-81
2021/12/27 04:22:17;;;;;;;7.47;6.78;;;;;;;-7.94;66.89;96068.64;1746492;79;21019;-81
2021/12/27 04:24:43;;;;;;;8.10;7.28;;;;;;;-7.94;66.53;96071.16;1759261;80;21011;-80
2021/12/27 04:27:10;;;;;;;8.50;6.85;;;;;;;-7.96;66.06;96069.16;1756318;80;21550;-81
2021/12/27 04:29:36;;;;;;;7.80;5.78;;;;;;;-7.96;66.08;96062.86;1756292;80;21036;-81
2021/12/27 04:32:02;;;;;;;7.05;6.20;;;;;;;-7.96;66.66;96059.89;1707942;81;21123;-81
2021/12/27 04:34:28;;;;;;;6.42;5.87;;;;;;;-7.93;67.13;96061.00;1687276;83;21003;-81
2021/12/27 04:36:54;;;;;;;6.17;5.47;;;;;;;-7.90;67.33;96063.36;1710080;82;21009;-81
2021/12/27 04:39:20;;;;;;;5.30;4.90;;;;;;;-7.85;67.36;96073.20;1723866;81;21391;-81
2021/12/27 04:41:46;;;;;;;5.10;4.70;;;;;;;-7.84;67.37;96072.31;1721119;81;21378;-81
2021/12/27 04:44:12;;;;;;;5.30;4.90;;;;;;;-7.80;67.48;96070.47;1714772;81;21146;-81
2021/12/27 04:46:37;;;;;;;5.95;5.40;;;;;;;-7.78;67.46;96062.38;1685280;83;21127;-81
2021/12/27 04:49:03;;;;;;;6.53;5.47;;;;;;;-7.75;67.51;96063.03;1720687;81;20995;-81
2021/12/27 04:51:29;;;;;;;6.03;5.30;;;;;;;-7.79;67.51;96065.34;1711307;81;21495;-81
2021/12/27 04:53:55;;;;;;;6.50;5.58;;;;;;;-7.86;67.53;96064.01;1695956;82;21099;-81
2021/12/27 04:56:21;;;;;;;6.00;5.50;;;;;;;-7.94;67.40;96068.20;1681524;83;21069;-81
2021/12/27 04:58:47;;;;;;;6.05;5.45;;;;;;;-7.95;67.32;96067.83;1698041;83;21055;-81
2021/12/27 05:01:13;;;;;;;5.62;5.03;;;;;;;-7.91;67.46;96062.17;1746047;80;21089;-81
2021/12/27 05:03:40;;;;;;;5.55;5.05;;;;;;;-7.86;67.20;96067.80;1752584;80;21050;-81
2021/12/27 05:06:07;;;;;;;6.00;5.40;;;;;;;-7.83;67.06;96064.30;1752841;80;21434;-81
2021/12/27 05:08:32;;;;;;;5.55;5.15;;;;;;;-7.83;66.98;96057.55;1749017;80;21035;-81
2021/12/27 05:10:58;;;;;;;5.35;4.92;;;;;;;-7.80;66.88;96054.89;1759777;80;21425;-81
2021/12/27 05:13:24;;;;;;;5.28;4.87;;;;;;;-7.77;66.90;96059.77;1719216;81;20996;-81
2021/12/27 05:15:50;;;;;;;5.35;4.85;;;;;;;-7.74;66.86;96058.80;1740359;79;21488;-81
2021/12/27 05:18:16;;;;;;;6.40;5.75;;;;;;;-7.74;66.73;96052.49;1757290;79;21023;-81
2021/12/27 05:20:41;;;;;;;7.03;5.60;;;;;;;-7.72;66.50;96055.30;1753377;80;21014;-81
2021/12/27 05:23:07;;;;;;;12.60;8.40;;;;;;;-7.71;66.66;96049.80;1717241;80;21034;-81
2021/12/27 05:25:34;;;;;;;22.67;10.38;;;;;;;-7.70;66.80;96052.25;1748032;80;21023;-81
2021/12/27 05:28:00;;;;;;;24.87;11.57;;;;;;;-7.72;66.81;96055.30;1760935;79;21495;-81
2021/12/27 05:30:25;;;;;;;41.02;19.12;;;;;;;-7.71;66.60;96056.11;1758506;80;21014;-82
2021/12/27 05:32:51;;;;;;;40.35;22.07;;;;;;;-7.73;66.18;96055.38;1747444;80;21293;-81
2021/12/27 05:35:17;;;;;;;57.73;31.35;;;;;;;-7.73;65.92;96056.64;1752924;79;21045;-81
2021/12/27 05:37:44;;;;;;;62.98;33.60;;;;;;;-7.77;65.80;96052.20;1756210;80;20956;-81
2021/12/27 05:40:14;;;;;;;45.38;22.30;;;;;;;-7.82;65.74;96050.34;1730877;80;21038;-81
2021/12/27 05:42:40;;;;;;;19.02;11.15;;;;;;;-7.89;65.66;96052.37;1759014;80;20933;-81
2021/12/27 05:45:06;;;;;;;9.35;7.10;;;;;;;-7.88;65.53;96055.27;1759795;80;21038;-81
2021/12/27 05:47:32;;;;;;;9.33;6.33;;;;;;;-7.90;65.42;96054.53;1752007;80;21028;-81
2021/12/27 05:49:58;;;;;;;8.53;6.50;;;;;;;-7.94;65.37;96049.73;1725241;81;21416;-81
2021/12/27 05:52:23;;;;;;;6.60;6.00;;;;;;;-7.94;65.11;96047.20;1724848;81;21397;-81
2021/12/27 05:54:49;;;;;;;12.85;7.60;;;;;;;-7.95;65.23;96043.88;1749641;80;21045;-81
2021/12/27 05:57:15;;;;;;;9.40;6.92;;;;;;;-7.97;65.31;96041.88;1754406;80;21004;-81
2021/12/27 05:59:41;;;;;;;7.62;6.75;;;;;;;-8.01;65.35;96042.90;1753573;79;20997;-81
2021/12/27 06:02:07;;;;;;;9.48;7.50;;;;;;;-8.00;65.56;96052.09;1761758;79;21386;-81
2021/12/27 06:04:33;;;;;;;10.40;7.40;;;;;;;-7.98;65.42;96046.52;1753691;80;21008;-81
2021/12/27 06:06:59;;;;;;;10.88;7.70;;;;;;;-7.96;65.32;96047.73;1750028;80;20984;-81
2021/12/27 06:09:24;;;;;;;18.05;10.48;;;;;;;-7.95;65.42;96047.66;1745033;80;20964;-81
2021/12/27 06:11:50;;;;;;;125.05;50.10;;;;;;;-7.95;65.45;96052.70;1755083;80;21484;-81
2021/12/27 06:14:16;;;;;;;229.32;103.97;;;;;;;-7.95;65.27;96051.44;1729671;79;21086;-81
2021/12/27 06:16:43;;;;;;;68.80;31.23;;;;;;;-7.94;65.06;96045.50;1760151;80;21063;-81
2021/12/27 06:19:08;;;;;;;41.35;21.55;;;;;;;-7.92;64.84;96037.41;1742022;80;21000;-81
2021/12/27 06:21:34;;;;;;;29.20;16.73;;;;;;;-7.91;64.69;96034.44;1761199;80;20964;-80
2021/12/27 06:24:01;;;;;;;10.28;7.00;;;;;;;-7.92;64.74;96036.14;1750187;79;21003;-81
2021/12/27 06:26:27;;;;;;;10.60;6.17;;;;;;;-7.89;65.26;96033.46;1753241;80;21011;-81
2021/12/27 06:28:52;;;;;;;9.03;7.42;;;;;;;-7.84;65.83;96029.88;1752564;80;20972;-81
2021/12/27 06:31:19;;;;;;;11.18;8.38;;;;;;;-7.82;65.85;96031.88;1702140;82;21028;-81
2021/12/27 06:33:46;;;;;;;12.75;9.25;;;;;;;-7.81;66.10;96034.77;1716457;81;21039;-81
2021/12/27 06:36:11;;;;;;;20.52;10.75;;;;;;;-7.79;66.17;96033.81;1706425;81;21086;-81
2021/12/27 06:38:37;;;;;;;54.67;20.75;;;;;;;-7.80;66.31;96033.90;1712319;82;21389;-81
2021/12/27 06:41:03;;;;;;;43.87;20.32;;;;;;;-7.83;66.04;96034.84;1720963;81;21360;-81
2021/12/27 06:43:30;;;;;;;43.17;21.55;;;;;;;-7.86;66.06;96033.30;1707761;81;20988;-81
2021/12/27 06:45:58;;;;;;;44.33;19.30;;;;;;;-7.94;65.66;96029.11;1694742;82;21094;-81
2021/12/27 06:48:24;;;;;;;39.75;17.10;;;;;;;-7.89;65.54;96032.65;1758379;79;20995;-81
2021/12/27 06:50:49;;;;;;;23.22;12.23;;;;;;;-7.90;65.48;96035.62;1751891;80;21051;-81
2021/12/27 06:53:16;;;;;;;15.00;8.88;;;;;;;-7.94;65.82;96030.37;1757227;80;21093;-81
2021/12/27 06:55:44;;;;;;;8.53;6.03;;;;;;;-7.94;65.82;96030.37;1738278;80;21043;-81
2021/12/27 06:58:11;;;;;;;7.30;5.53;;;;;;;-7.94;66.10;96022.80;1765840;79;21046;-81
2021/12/27 07:00:37;;;;;;;6.45;5.75;;;;;;;-7.92;66.20;96035.33;1765470;79;21444;-81
2021/12/27 07:03:03;;;;;;;6.45;4.78;;;;;;;-7.92;66.20;96029.84;1734487;80;21043;-81
2021/12/27 07:05:28;;;;;;;7.28;6.10;;;;;;;-7.88;66.25;96029.23;1744117;80;21071;-81
2021/12/27 07:07:54;;;;;;;7.80;6.00;;;;;;;-7.83;66.32;96032.77;1731303;81;21063;-81
2021/12/27 07:10:22;;;;;;;10.35;6.70;;;;;;;-7.85;66.36;96024.02;1735065;80;21044;-81
2021/12/27 07:12:48;;;;;;;10.78;6.20;;;;;;;-7.89;66.62;96017.06;1746303;80;21095;-81
2021/12/27 07:15:14;;;;;;;7.83;6.05;;;;;;;-7.87;66.72;96019.06;1755907;80;20955;-81
2021/12/27 07:17:39;;;;;;;6.95;6.03;;;;;;;-7.84;66.64;96019.80;1751219;80;22096;-81
2021/12/27 07:20:07;;;;;;;8.95;6.53;;;;;;;-7.84;66.68;96009.70;1744952;80;21046;-81
2021/12/27 07:22:32;;;;;;;8.80;7.05;;;;;;;-7.82;66.89;96012.95;1738434;80;21043;-82
2021/12/27 07:24:58;;;;;;;11.33;8.05;;;;;;;-7.79;66.91;96009.05;1720691;81;21010;-81
2021/12/27 07:27:24;;;;;;;11.88;8.40;;;;;;;-7.80;67.05;96001.11;1689701;83;21031;-81
2021/12/27 07:29:50;;;;;;;21.75;10.82;;;;;;;-7.78;66.88;96000.13;1719969;81;21426;-81
2021/12/27 07:32:15;;;;;;;15.95;8.93;;;;;;;-7.82;66.94;95991.52;1724250;81;21028;-81
2021/12/27 07:34:41;;;;;;;9.80;7.70;;;;;;;-7.80;66.91;95992.28;1721756;81;21136;-82
2021/12/27 07:37:07;;;;;;;19.80;10.53;;;;;;;-7.78;66.87;95990.49;1685274;82;21043;-81
2021/12/27 07:39:33;;;;;;;61.75;23.40;;;;;;;-7.77;66.90;95997.16;1684117;82;21439;-81
2021/12/27 07:41:58;;;;;;;44.35;21.60;;;;;;;-7.78;67.02;95999.31;1694872;83;21421;-81
2021/12/27 07:44:24;;;;;;;62.78;30.35;;;;;;;-7.89;66.66;96014.99;1685268;82;21043;-82
2021/12/27 07:46:51;;;;;;;71.53;34.03;;;;;;;-8.05;66.38;96027.56;1684738;83;21036;-81
2021/12/27 07:49:17;;;;;;;73.62;39.65;;;;;;;-8.11;66.43;96024.55;1745201;80;21011;-81
2021/12/27 07:51:43;;;;;;;91.02;45.40;;;;;;;-8.25;66.47;96015.16;1752735;80;22400;-81
2021/12/27 07:54:09;;;;;;;82.20;43.05;;;;;;;-8.26;66.30;96024.42;1733820;80;21448;-81
2021/12/27 07:56:35;;;;;;;96.17;49.40;;;;;;;-8.26;66.50;96019.83;1753794;80;20940;-81
2021/12/27 07:59:04;;;;;;;96.02;49.55;;;;;;;-8.38;66.51;96014.97;1752872;80;21038;-81
2021/12/27 08:01:28;;;;;;;99.25;46.88;;;;;;;-8.44;66.92;96010.25;1753334;80;21026;-81
2021/12/27 08:03:54;;;;;;;87.12;41.70;;;;;;;-8.44;66.91;96016.99;1751946;80;21536;-81
2021/12/27 08:06:20;;;;;;;73.45;36.25;;;;;;;-8.44;67.28;96011.51;1728835;80;21074;-81
2021/12/27 08:08:45;;;;;;;72.50;38.13;;;;;;;-8.39;67.60;96002.01;1715786;80;21059;-80
2021/12/27 08:11:11;;;;;;;76.37;38.83;;;;;;;-8.35;67.73;95998.88;1748785;80;21087;-79
2021/12/27 08:13:37;;;;;;;97.70;51.00;;;;;;;-8.26;67.98;96003.00;1739147;80;21474;-80
2021/12/27 08:16:04;;;;;;;106.27;54.18;;;;;;;-8.22;67.86;96000.69;1741475;80;20979;-80
2021/12/27 08:18:31;;;;;;;113.68;58.15;;;;;;;-8.18;67.52;96000.08;1754668;80;21030;-80
2021/12/27 08:20:56;;;;;;;134.37;66.77;;;;;;;-8.19;67.62;96005.56;1760537;80;21020;-80
2021/12/27 08:23:22;;;;;;;134.60;72.85;;;;;;;-8.16;67.46;96003.33;1759530;80;21029;-79
2021/12/27 08:25:48;;;;;;;147.95;72.40;;;;;;;-8.09;67.20;96005.12;1746205;80;21389;-80
2021/12/27 08:28:13;;;;;;;143.02;79.25;;;;;;;-8.04;67.43;96004.43;1744631;80;21121;-80
2021/12/27 08:30:39;;;;;;;174.97;91.15;;;;;;;-8.06;66.92;96001.98;1764510;79;21065;-80
2021/12/27 08:33:05;;;;;;;180.30;93.85;;;;;;;-8.39;66.07;96002.45;1709201;81;21134;-80
2021/12/27 08:35:31;;;;;;;171.93;93.07;;;;;;;-8.45;66.77;96007.81;1754646;80;21111;-80
2021/12/27 08:37:57;;;;;;;165.60;88.67;;;;;;;-8.36;67.25;95998.06;1751641;80;21052;-80
2021/12/27 08:40:22;;;;;;;166.73;87.60;;;;;;;-8.24;67.88;96002.92;1767081;80;21035;-80
2021/12/27 08:42:48;;;;;;;197.22;98.58;;;;;;;-8.09;68.37;96014.75;1755423;80;21054;-80
2021/12/27 08:45:14;;;;;;;180.10;91.47;;;;;;;-7.94;68.49;96021.55;1754507;80;20991;-79
2021/12/27 08:47:40;;;;;;;184.48;92.95;;;;;;;-7.79;68.04;96019.94;1752745;80;21455;-80
2021/12/27 08:50:07;;;;;;;175.20;87.37;;;;;;;-7.72;67.68;96011.60;1749802;79;21039;-80
2021/12/27 08:52:33;;;;;;;178.75;89.50;;;;;;;-7.69;67.82;96002.61;1754464;80;21078;-80
2021/12/27 08:55:01;;;;;;;174.62;88.50;;;;;;;-7.65;67.86;96000.28;1758601;79;21071;-80
2021/12/27 08:57:26;;;;;;;177.12;97.97;;;;;;;-7.59;67.34;95997.45;1749257;79;21481;-80
2021/12/27 08:59:52;;;;;;;183.68;95.32;;;;;;;-7.54;67.58;96002.25;1763500;79;20996;-80
2021/12/27 09:02:18;;;;;;;183.60;100.22;;;;;;;-7.54;67.26;96001.80;1763352;80;21003;-80
2021/12/27 09:04:44;;;;;;;193.62;103.78;;;;;;;-7.45;67.29;96005.11;1720344;80;21097;-80
2021/12/27 09:07:12;;;;;;;190.30;104.45;;;;;;;-7.38;66.93;95995.05;1754563;80;21145;-80
2021/12/27 09:09:39;;;;;;;198.47;108.50;;;;;;;-7.37;67.04;95997.13;1756553;80;21004;-81
2021/12/27 09:12:07;;;;;;;198.40;106.03;;;;;;;-7.38;66.99;95986.21;1751768;80;21454;-81
2021/12/27 09:14:34;;;;;;;197.90;102.42;;;;;;;-7.27;67.58;95983.94;1751194;80;21031;-80
2021/12/27 09:17:00;;;;;;;200.45;104.10;;;;;;;-7.13;67.57;95983.19;1765394;79;21012;-80
2021/12/27 09:19:25;;;;;;;206.45;108.60;;;;;;;-7.17;67.08;95980.44;1748558;80;21348;-80
2021/12/27 09:21:52;;;;;;;202.93;103.95;;;;;;;-7.12;67.12;95975.97;1747265;80;20999;-80
2021/12/27 09:24:19;;;;;;;193.87;99.45;;;;;;;-6.96;67.01;95973.42;1756688;80;20992;-81
2021/12/27 09:26:45;;;;;;;198.50;105.65;;;;;;;-6.83;67.66;95976.89;1749410;80;21370;-79
2021/12/27 09:29:10;;;;;;;200.43;110.05;;;;;;;-6.74;67.93;95981.86;1753258;80;21277;-79
2021/12/27 09:31:36;;;;;;;215.10;117.08;;;;;;;-6.65;67.09;95977.56;1759944;80;21027;-79
2021/12/27 09:34:02;;;;;;;224.58;111.65;;;;;;;-6.57;67.41;95974.14;1757857;79;21016;-79
2021/12/27 09:36:28;;;;;;;223.87;117.35;;;;;;;-6.39;67.78;95979.85;1753908;79;20952;-79
2021/12/27 09:38:53;;;;;;;221.50;114.88;;;;;;;-6.34;67.05;95976.63;1762762;80;21053;-79
2021/12/27 09:41:19;;;;;;;216.38;116.35;;;;;;;-6.19;67.33;95971.91;1752731;80;21469;-79
2021/12/27 09:43:46;;;;;;;223.87;118.15;;;;;;;-6.00;68.00;95971.67;1742208;80;20984;-79
2021/12/27 09:46:13;;;;;;;209.47;112.40;;;;;;;-5.85;67.67;95963.14;1748735;80;21046;-79
2021/12/27 09:48:40;;;;;;;187.00;100.80;;;;;;;-5.76;66.97;95963.02;1757426;80;21078;-79
2021/12/27 09:51:06;;;;;;;200.90;106.45;;;;;;;-5.84;66.44;95970.28;1754061;80;21043;-79
2021/12/27 09:53:32;;;;;;;200.20;105.63;;;;;;;-5.97;66.29;95968.95;1758468;80;21023;-79
2021/12/27 09:55:59;;;;;;;204.72;107.43;;;;;;;-5.97;66.47;95963.08;1744409;80;20964;-79
2021/12/27 09:58:25;;;;;;;211.55;108.10;;;;;;;-5.97;66.59;95960.10;1756752;80;21059;-78
2021/12/27 10:00:50;;;;;;;217.03;113.12;;;;;;;-5.83;67.45;95958.80;1746252;80;21035;-79
2021/12/27 10:03:16;;;;;;;220.73;109.25;;;;;;;-5.81;66.96;95959.97;1749934;80;20972;-80
2021/12/27 10:05:42;;;;;;;182.97;92.90;;;;;;;-5.71;67.34;95958.48;1746209;80;21372;-79
2021/12/27 10:08:08;;;;;;;179.05;96.65;;;;;;;-5.65;66.93;95954.34;1737409;81;21032;-79
2021/12/27 10:10:35;;;;;;;180.35;92.22;;;;;;;-5.85;65.67;95956.81;1749784;80;20975;-79
2021/12/27 10:13:08;;;;;;;177.93;91.30;;;;;;;-5.96;66.52;95954.59;1755898;79;21047;-79
2021/12/27 10:15:38;;;;;;;188.72;96.30;;;;;;;-5.94;66.21;95948.53;1755617;80;21042;-80
2021/12/27 10:18:15;;;;;;;153.20;79.95;;;;;;;-5.99;66.24;95940.86;1758823;80;21075;-79
2021/12/27 10:20:41;;;;;;;155.93;82.33;;;;;;;-5.98;66.83;95943.75;1761019;80;21110;-79
2021/12/27 10:23:07;;;;;;;172.87;88.75;;;;;;;-6.03;67.01;95936.87;1754040;80;21504;-79
2021/12/27 10:25:33;;;;;;;167.50;87.22;;;;;;;-5.98;67.65;95934.90;1750660;80;21043;-80
2021/12/27 10:28:00;;;;;;;137.18;69.27;;;;;;;-5.89;67.76;95938.91;1757922;80;20985;-79
2021/12/27 10:30:29;;;;;;;157.40;81.32;;;;;;;-5.85;66.91;95947.15;1761176;80;21035;-79
2021/12/27 10:33:19;;;;;;;159.95;85.30;;;;;;;-5.84;67.54;95949.58;1753142;79;21175;-79
2021/12/27 10:35:51;;;;;;;157.20;84.32;;;;;;;-5.85;67.61;95942.09;1756383;80;21036;-81
2021/12/27 10:38:24;;;;;;;;;;;;;;;-5.76;67.15;95949.10;1753334;80;21417;-81
2021/12/27 10:40:56;;;;;;;170.22;84.13;;;;;;;-5.83;66.81;95951.20;1758512;80;20117;-81
2021/12/27 10:43:41;;;;;;;169.00;81.90;;;;;;;-6.02;66.92;95945.66;1746589;80;21066;-81
2021/12/27 10:46:16;;;;;;;137.12;75.03;;;;;;;-5.92;67.30;95945.91;1755086;80;21038;-80
2021/12/27 10:48:46;;;;;;;137.30;72.35;;;;;;;-5.93;67.36;95936.69;1739321;80;21092;-82
2021/12/27 10:51:12;;;;;;;148.38;78.42;;;;;;;-5.92;67.52;95939.58;1763502;79;21367;-81
2021/12/27 10:53:56;;;;;;;145.75;79.27;;;;;;;-5.94;67.25;95932.08;1764790;79;21377;-81
2021/12/27 10:56:25;;;;;;;146.62;77.72;;;;;;;-5.83;67.68;95939.81;1698056;82;21008;-80
2021/12/27 10:58:56;;;;;;;144.53;80.10;;;;;;;-5.65;68.03;95926.50;1700379;82;21052;-81
2021/12/27 11:01:26;;;;;;;151.75;80.57;;;;;;;-5.56;67.29;95922.57;1758055;80;21478;-80
2021/12/27 11:03:55;;;;;;;156.22;79.80;;;;;;;-5.57;67.64;95919.23;1750375;80;21428;-81
2021/12/27 11:06:24;;;;;;;162.18;81.57;;;;;;;-5.48;67.48;95922.47;1749443;81;21094;-81
2021/12/27 11:08:52;;;;;;;159.18;80.87;;;;;;;-5.44;67.55;95921.36;1752391;80;21305;-81
2021/12/27 11:11:23;;;;;;;136.07;72.12;;;;;;;-5.42;67.61;95916.20;1763062;79;21000;-81
2021/12/27 11:13:51;;;;;;;158.15;85.80;;;;;;;-5.52;67.26;95907.57;1743761;80;21058;-81
2021/12/27 11:16:17;;;;;;;167.62;84.03;;;;;;;-5.56;67.56;95906.92;1707829;82;21474;-81
2021/12/27 11:18:42;;;;;;;147.13;74.77;;;;;;;-5.42;68.18;95903.54;1724510;82;21085;-81
2021/12/27 11:21:21;;;;;;;156.00;81.50;;;;;;;-5.37;67.89;95906.62;1721026;81;21057;-81